createdAt,value
2023-01-06T00:01:09.870Z,98343.66
2023-01-06T00:04:12.524Z,98336.41
2023-01-06T00:07:15.289Z,98353.84
2023-01-06T00:10:18.396Z,98349.22
2023-01-06T00:13:21.324Z,98342.09
2023-01-06T00:16:24.518Z,98367.72
2023-01-06T00:19:27.109Z,98371.25
2023-01-06T00:22:29.720Z,98377.41
2023-01-06T00:25:32.312Z,98403.28
2023-01-06T00:28:35.541Z,98389.38
2023-01-06T00:31:38.454Z,98400.66
2023-01-06T00:34:41.053Z,98397.53
2023-01-06T00:37:43.643Z,98406.09
2023-01-06T00:40:46.246Z,98401.09
2023-01-06T00:43:48.784Z,98404.63
2023-01-06T00:46:51.450Z,98408.41
2023-01-06T00:49:54.010Z,98398.00
2023-01-06T00:52:56.559Z,98394.41
2023-01-06T00:56:02.608Z,98396.41
2023-01-06T00:59:05.967Z,98392.25
2023-01-06T01:02:08.618Z,98388.31
2023-01-06T01:05:11.513Z,98401.47
2023-01-06T01:08:14.106Z,98404.50
2023-01-06T01:11:46.678Z,98400.25
2023-01-06T01:14:54.095Z,98405.28
2023-01-06T01:17:56.596Z,98404.06
2023-01-06T01:20:59.184Z,98398.25
2023-01-06T01:24:02.224Z,98407.41
2023-01-06T01:27:04.749Z,98419.13
2023-01-06T01:30:08.064Z,98410.19
2023-01-06T01:33:11.250Z,98416.47
2023-01-06T01:36:15.843Z,98418.66
2023-01-06T01:39:20.446Z,98416.59
2023-01-06T01:42:23.085Z,98428.69
2023-01-06T01:45:29.721Z,98412.56
2023-01-06T01:48:34.599Z,98419.03
2023-01-06T01:51:40.687Z,98415.69
2023-01-06T01:54:43.826Z,98418.06
2023-01-06T01:57:55.026Z,98430.66
2023-01-06T02:00:57.594Z,98431.28
2023-01-06T02:04:02.012Z,98434.22
2023-01-06T02:07:05.481Z,98431.53
2023-01-06T02:10:13.412Z,98435.44
2023-01-06T02:13:16.666Z,98432.13
2023-01-06T02:16:34.421Z,98434.19
2023-01-06T02:20:14.462Z,98432.19
2023-01-06T02:23:41.674Z,98429.84
2023-01-06T02:27:03.657Z,98433.47
2023-01-06T02:30:30.899Z,98432.09
2023-01-06T02:33:51.187Z,98434.16
2023-01-06T02:36:59.801Z,98443.72
2023-01-06T02:40:29.889Z,98437.69
2023-01-06T02:43:46.916Z,98441.13
2023-01-06T02:47:11.385Z,98452.09
2023-01-06T02:50:46.262Z,98456.06
2023-01-06T02:54:00.783Z,98459.69
2023-01-06T02:57:21.396Z,98458.00
2023-01-06T03:00:37.220Z,98466.75
2023-01-06T03:03:42.235Z,98454.88
2023-01-06T03:06:47.866Z,98468.78
2023-01-06T03:09:53.667Z,98466.38
2023-01-06T03:13:18.058Z,98462.50
2023-01-06T03:16:20.845Z,98460.03
2023-01-06T03:19:24.752Z,98465.59
2023-01-06T03:22:28.395Z,98464.97
2023-01-06T03:25:32.515Z,98451.50
2023-01-06T03:28:35.978Z,98464.03
2023-01-06T03:32:01.677Z,98462.66
2023-01-06T03:35:27.569Z,98459.97
2023-01-06T03:39:06.567Z,98466.53
2023-01-06T03:43:13.016Z,98459.78
2023-01-06T03:46:27.047Z,98459.78
2023-01-06T03:49:31.954Z,98462.38
2023-01-06T03:52:39.506Z,98466.63
2023-01-06T03:55:46.529Z,98474.78
2023-01-06T03:58:53.034Z,98466.44
2023-01-06T04:01:56.027Z,98477.72
2023-01-06T04:05:12.476Z,98472.53
2023-01-06T04:08:16.713Z,98486.06
2023-01-06T04:11:38.351Z,98491.91
2023-01-06T04:14:40.963Z,98499.97
2023-01-06T04:17:44.197Z,98506.22
2023-01-06T04:20:49.288Z,98512.75
2023-01-06T04:23:56.494Z,98518.72
2023-01-06T04:26:59.082Z,98516.50
2023-01-06T04:30:02.194Z,98526.47
2023-01-06T04:33:05.997Z,98531.03
2023-01-06T04:36:09.204Z,98530.75
2023-01-06T04:39:14.097Z,98531.88
2023-01-06T04:42:16.718Z,98533.44
2023-01-06T04:45:19.231Z,98537.06
2023-01-06T04:48:21.750Z,98541.03
2023-01-06T04:51:24.229Z,98543.25
2023-01-06T04:54:26.716Z,98541.59
2023-01-06T04:57:29.209Z,98539.34
2023-01-06T05:00:31.845Z,98546.38
2023-01-06T05:03:36.228Z,98548.00
2023-01-06T05:06:39.673Z,98549.13
2023-01-06T05:09:42.149Z,98543.59
2023-01-06T05:12:44.674Z,98544.69
2023-01-06T05:15:47.128Z,98550.94
2023-01-06T05:18:49.621Z,98542.66
2023-01-06T05:21:52.184Z,98538.03
2023-01-06T05:24:54.681Z,98540.28
2023-01-06T05:27:57.206Z,98542.28
2023-01-06T05:31:04.281Z,98548.31
2023-01-06T05:34:06.787Z,98548.59
2023-01-06T05:37:09.324Z,98551.78
2023-01-06T05:40:11.941Z,98560.84
2023-01-06T05:43:14.578Z,98559.72
2023-01-06T05:46:17.094Z,98549.47
2023-01-06T05:49:19.685Z,98561.84
2023-01-06T05:52:24.005Z,98568.53
2023-01-06T05:55:26.766Z,98577.31
2023-01-06T05:58:33.624Z,98587.69
2023-01-06T06:01:36.195Z,98595.66
2023-01-06T06:04:38.723Z,98600.16
2023-01-06T06:07:41.274Z,98601.09
2023-01-06T06:10:43.806Z,98605.69
2023-01-06T06:13:51.659Z,98609.22
2023-01-06T06:16:54.154Z,98618.75
2023-01-06T06:19:56.725Z,98621.25
2023-01-06T06:22:59.266Z,98625.94
2023-01-06T06:26:02.159Z,98631.22
2023-01-06T06:29:08.149Z,98641.47
2023-01-06T06:32:10.652Z,98626.75
2023-01-06T06:35:13.148Z,98631.22
2023-01-06T06:38:15.901Z,98630.94
2023-01-06T06:41:18.899Z,98633.72
2023-01-06T06:44:21.456Z,98639.81
2023-01-06T06:47:23.934Z,98648.00
2023-01-06T06:50:26.451Z,98653.19
2023-01-06T06:53:29.138Z,98661.38
2023-01-06T06:56:31.909Z,98656.38
2023-01-06T06:59:34.487Z,98665.97
2023-01-06T07:02:37.101Z,98661.06
2023-01-06T07:05:39.727Z,98662.88
2023-01-06T07:08:46.379Z,98653.84
2023-01-06T07:11:48.911Z,98663.97
2023-01-06T07:14:51.578Z,98671.91
2023-01-06T07:17:54.198Z,98676.84
2023-01-06T07:20:56.809Z,98682.47
2023-01-06T07:23:59.393Z,98685.63
2023-01-06T07:27:01.948Z,98687.03
2023-01-06T07:30:05.588Z,98685.25
2023-01-06T07:33:08.331Z,98673.38
2023-01-06T07:36:10.910Z,98675.81
2023-01-06T07:39:13.576Z,98680.66
2023-01-06T07:42:16.109Z,98687.81
2023-01-06T07:45:18.686Z,98686.53
2023-01-06T07:48:21.259Z,98692.00
2023-01-06T07:51:24.089Z,98689.34
2023-01-06T07:54:26.932Z,98690.75
2023-01-06T07:57:30.196Z,98688.63
2023-01-06T08:00:33.281Z,98680.72
2023-01-06T08:03:35.809Z,98677.09
2023-01-06T08:06:41.574Z,98686.31
2023-01-06T08:09:44.185Z,98691.78
2023-01-06T08:12:46.928Z,98684.53
2023-01-06T08:15:52.277Z,98689.56
2023-01-06T08:18:54.948Z,98685.19
2023-01-06T08:21:57.724Z,98690.03
2023-01-06T08:25:00.313Z,98690.91
2023-01-06T08:28:03.796Z,98698.78
2023-01-06T08:31:11.447Z,98709.72
2023-01-06T08:34:14.852Z,98711.19
2023-01-06T08:37:17.620Z,98709.88
2023-01-06T08:40:20.144Z,98699.38
2023-01-06T08:43:23.030Z,98710.66
2023-01-06T08:46:26.718Z,98709.78
2023-01-06T08:49:29.577Z,98714.00
2023-01-06T08:52:32.501Z,98712.06
2023-01-06T08:55:38.689Z,98708.19
2023-01-06T08:58:42.041Z,98707.59
2023-01-06T09:01:45.308Z,98705.88
2023-01-06T09:04:48.935Z,98702.47
2023-01-06T09:07:51.748Z,98700.91
2023-01-06T09:10:54.560Z,98702.81
2023-01-06T09:13:57.213Z,98708.66
2023-01-06T09:16:59.849Z,98699.91
2023-01-06T09:20:02.690Z,98702.88
2023-01-06T09:23:05.259Z,98713.41
2023-01-06T09:26:08.220Z,98700.03
2023-01-06T09:29:10.878Z,98707.28
2023-01-06T09:32:13.678Z,98699.59
2023-01-06T09:35:16.302Z,98705.22
2023-01-06T09:38:19.101Z,98695.56
2023-01-06T09:41:36.795Z,98692.56
2023-01-06T09:44:55.657Z,98680.91
2023-01-06T09:47:58.388Z,98683.31
2023-01-06T09:51:02.856Z,98677.13
2023-01-06T09:54:13.982Z,98668.03
2023-01-06T09:57:21.216Z,98678.59
2023-01-06T10:00:40.035Z,98669.97
2023-01-06T10:03:43.678Z,98662.34
2023-01-06T10:07:15.875Z,98662.91
2023-01-06T10:10:39.396Z,98667.81
2023-01-06T10:13:48.073Z,98667.25
2023-01-06T10:17:12.555Z,98663.72
2023-01-06T10:20:33.691Z,98662.31
2023-01-06T10:23:58.599Z,98657.78
2023-01-06T10:27:21.422Z,98655.59
2023-01-06T10:30:53.510Z,98650.47
2023-01-06T10:33:57.720Z,98655.03
2023-01-06T10:37:23.954Z,98647.81
2023-01-06T10:40:29.565Z,98651.25
2023-01-06T10:43:32.648Z,98646.16
2023-01-06T10:46:36.312Z,98656.03
2023-01-06T10:49:39.082Z,98654.94
2023-01-06T10:52:42.671Z,98639.06
2023-01-06T10:55:58.809Z,98642.59
2023-01-06T10:59:12.110Z,98642.53
2023-01-06T11:02:23.116Z,98636.97
2023-01-06T11:05:28.102Z,98631.97
2023-01-06T11:08:31.209Z,98626.31
2023-01-06T11:11:34.487Z,98615.22
2023-01-06T11:14:39.953Z,98619.25
2023-01-06T11:17:46.253Z,98611.13
2023-01-06T11:21:09.472Z,98618.41
2023-01-06T11:24:19.221Z,98620.44
2023-01-06T11:27:21.843Z,98617.81
2023-01-06T11:30:29.079Z,98618.19
2023-01-06T11:33:32.633Z,98618.53
2023-01-06T11:36:35.546Z,98618.91
2023-01-06T11:39:38.576Z,98622.94
2023-01-06T11:46:07.610Z,98620.41
2023-01-06T11:49:17.049Z,98610.19
2023-01-06T11:52:26.200Z,98617.34
2023-01-06T11:55:29.280Z,98614.03
2023-01-06T11:58:37.915Z,98607.94
2023-01-06T12:01:59.596Z,98607.94
2023-01-06T12:05:06.711Z,98604.38
2023-01-06T12:08:16.344Z,98601.91
2023-01-06T12:11:51.761Z,98590.75
2023-01-06T12:14:55.050Z,98595.28
2023-01-06T12:18:08.355Z,98586.13
2023-01-06T12:21:16.203Z,98586.59
2023-01-06T12:24:19.776Z,98583.69
2023-01-06T12:27:34.831Z,98580.97
2023-01-06T12:30:51.385Z,98584.91
2023-01-06T12:34:15.995Z,98590.75
2023-01-06T12:37:29.678Z,98587.56
2023-01-06T12:40:37.431Z,98581.91
2023-01-06T12:43:41.626Z,98570.09
2023-01-06T12:47:07.473Z,98574.56
2023-01-06T12:50:16.396Z,98579.66
2023-01-06T12:53:43.740Z,98580.41
2023-01-06T12:56:55.679Z,98565.75
2023-01-06T13:00:27.117Z,98565.53
2023-01-06T13:03:33.226Z,98565.66
2023-01-06T13:07:12.346Z,98554.72
2023-01-06T13:10:38.525Z,98566.25
2023-01-06T13:13:50.367Z,98552.00
2023-01-06T13:17:08.443Z,98557.69
2023-01-06T13:20:33.083Z,98560.66
2023-01-06T13:23:35.924Z,98561.25
2023-01-06T13:26:38.777Z,98565.03
2023-01-06T13:29:50.328Z,98550.91
2023-01-06T13:33:30.671Z,98550.31
2023-01-06T13:36:52.069Z,98554.38
2023-01-06T13:40:12.645Z,98552.00
2023-01-06T13:43:24.442Z,98550.31
2023-01-06T13:46:28.028Z,98552.34
2023-01-06T13:49:32.198Z,98547.25
2023-01-06T13:52:35.929Z,98543.44
2023-01-06T13:55:40.721Z,98542.81
2023-01-06T13:58:47.718Z,98552.84
2023-01-06T14:01:51.549Z,98543.22
2023-01-06T14:04:54.355Z,98552.69
2023-01-06T14:08:02.082Z,98540.38
2023-01-06T14:11:16.785Z,98540.84
2023-01-06T14:14:29.515Z,98533.22
2023-01-06T14:17:42.839Z,98537.88
2023-01-06T14:20:45.639Z,98535.84
2023-01-06T14:23:53.949Z,98540.50
2023-01-06T14:27:03.998Z,98537.75
2023-01-06T14:30:20.879Z,98537.75
2023-01-06T14:33:37.809Z,98544.41
2023-01-06T14:36:41.044Z,98541.53
2023-01-06T14:39:49.422Z,98536.06
2023-01-06T14:42:53.599Z,98534.41
2023-01-06T14:45:58.737Z,98527.50
2023-01-06T14:49:07.126Z,98525.63
2023-01-06T14:52:15.518Z,98538.41
2023-01-06T14:55:20.834Z,98532.59
2023-01-06T14:58:38.791Z,98535.94
2023-01-06T15:01:45.370Z,98537.59
2023-01-06T15:04:55.513Z,98529.84
2023-01-06T15:08:05.339Z,98540.66
2023-01-06T15:11:29.409Z,98541.34
2023-01-06T15:14:34.229Z,98548.09
2023-01-06T15:17:36.922Z,98530.28
2023-01-06T15:20:42.580Z,98536.66
2023-01-06T15:23:47.720Z,98544.59
2023-01-06T15:26:56.786Z,98534.28
2023-01-06T15:29:59.496Z,98524.75
2023-01-06T15:33:03.156Z,98522.03
2023-01-06T15:36:07.152Z,98521.44
2023-01-06T15:39:13.527Z,98529.56
2023-01-06T15:42:21.059Z,98529.69
2023-01-06T15:45:33.623Z,98515.41
2023-01-06T15:48:38.899Z,98515.63
2023-01-06T15:51:54.207Z,98506.56
2023-01-06T15:55:00.143Z,98512.06
2023-01-06T15:58:05.952Z,98514.09
2023-01-06T16:01:16.074Z,98521.75
2023-01-06T16:04:19.146Z,98515.19
2023-01-06T16:07:21.885Z,98517.22
2023-01-06T16:10:38.997Z,98524.22
2023-01-06T16:13:54.203Z,98523.69
2023-01-06T16:17:08.130Z,98533.44
2023-01-06T16:20:23.142Z,98528.22
2023-01-06T16:23:34.092Z,98530.56
2023-01-06T16:26:45.025Z,98529.44
2023-01-06T16:29:48.040Z,98527.66
2023-01-06T16:32:53.059Z,98527.97
2023-01-06T16:35:55.830Z,98537.69
2023-01-06T16:38:58.687Z,98526.53
2023-01-06T16:42:01.271Z,98525.59
2023-01-06T16:45:09.344Z,98521.22
2023-01-06T16:48:15.694Z,98535.19
2023-01-06T16:51:19.018Z,98530.56
2023-01-06T16:54:22.223Z,98522.75
2023-01-06T16:57:25.074Z,98529.53
2023-01-06T17:00:28.927Z,98529.75
2023-01-06T17:03:35.982Z,98545.41
2023-01-06T17:06:40.113Z,98545.16
2023-01-06T17:09:43.783Z,98543.13
2023-01-06T17:13:12.999Z,98547.75
2023-01-06T17:16:17.469Z,98537.31
2023-01-06T17:19:28.679Z,98528.28
2023-01-06T17:22:32.192Z,98527.69
2023-01-06T17:25:35.665Z,98535.00
2023-01-06T17:28:38.720Z,98533.53
2023-01-06T17:31:50.795Z,98534.09
2023-01-06T17:34:54.170Z,98532.53
2023-01-06T17:37:59.925Z,98534.78
2023-01-06T17:41:03.118Z,98529.53
2023-01-06T17:44:20.534Z,98544.00
2023-01-06T17:47:23.919Z,98542.56
2023-01-06T17:50:32.890Z,98547.03
2023-01-06T17:53:55.999Z,98543.31
2023-01-06T17:57:00.366Z,98548.66
2023-01-06T18:00:17.127Z,98543.56
2023-01-06T18:03:26.858Z,98553.97
2023-01-06T18:06:38.085Z,98558.59
2023-01-06T18:09:40.704Z,98555.53
2023-01-06T18:12:43.615Z,98558.75
2023-01-06T18:15:54.449Z,98546.78
2023-01-06T18:19:22.022Z,98540.91
2023-01-06T18:22:26.486Z,98542.47
2023-01-06T18:25:29.606Z,98540.56
2023-01-06T18:28:32.844Z,98552.63
2023-01-06T18:31:38.618Z,98556.63
2023-01-06T18:34:43.904Z,98551.19
2023-01-06T18:37:46.683Z,98550.38
2023-01-06T18:40:49.473Z,98550.16
2023-01-06T18:43:52.617Z,98545.56
2023-01-06T18:46:55.372Z,98547.22
2023-01-06T18:50:03.174Z,98557.66
2023-01-06T18:53:16.186Z,98556.91
2023-01-06T18:56:26.360Z,98559.75
2023-01-06T18:59:29.186Z,98554.75
2023-01-06T19:02:38.153Z,98551.94
2023-01-06T19:05:41.109Z,98541.22
2023-01-06T19:08:56.746Z,98553.50
2023-01-06T19:12:10.045Z,98554.56
2023-01-06T19:15:21.315Z,98552.66
2023-01-06T19:18:24.403Z,98550.69
2023-01-06T19:21:27.240Z,98551.41
2023-01-06T19:24:35.679Z,98562.88
2023-01-06T19:27:40.055Z,98565.41
2023-01-06T19:31:04.527Z,98567.25
2023-01-06T19:34:14.068Z,98572.25
2023-01-06T19:37:17.971Z,98570.41
2023-01-06T19:40:26.256Z,98570.28
2023-01-06T19:43:36.388Z,98565.88
2023-01-06T19:46:44.671Z,98570.47
2023-01-06T19:49:53.388Z,98569.53
2023-01-06T19:52:59.665Z,98566.00
2023-01-06T19:56:15.647Z,98558.28
2023-01-06T19:59:27.678Z,98553.06
2023-01-06T20:02:35.184Z,98561.41
2023-01-06T20:05:38.545Z,98557.88
2023-01-06T20:08:44.203Z,98551.00
2023-01-06T20:11:46.933Z,98551.22
2023-01-06T20:14:49.629Z,98556.00
2023-01-06T20:17:52.570Z,98545.78
2023-01-06T20:20:55.409Z,98541.41
2023-01-06T20:23:58.821Z,98544.19
2023-01-06T20:27:01.502Z,98551.63
2023-01-06T20:30:05.329Z,98564.38
2023-01-06T20:33:07.976Z,98559.03
2023-01-06T20:36:10.801Z,98563.91
2023-01-06T20:39:15.420Z,98565.59
2023-01-06T20:42:18.311Z,98562.69
2023-01-06T20:45:21.562Z,98558.31
2023-01-06T20:48:24.642Z,98561.09
2023-01-06T20:51:27.436Z,98558.94
2023-01-06T20:54:30.472Z,98568.84
2023-01-06T20:57:33.471Z,98561.31
2023-01-06T21:00:36.423Z,98558.28
2023-01-06T21:03:39.392Z,98561.03
2023-01-06T21:06:42.413Z,98567.69
2023-01-06T21:09:45.293Z,98554.44
2023-01-06T21:12:48.161Z,98560.59
2023-01-06T21:15:51.469Z,98566.63
2023-01-06T21:18:54.651Z,98566.31
2023-01-06T21:21:57.645Z,98562.06
2023-01-06T21:25:00.368Z,98553.06
2023-01-06T21:28:03.707Z,98557.47
2023-01-06T21:31:06.541Z,98565.47
2023-01-06T21:34:09.413Z,98559.03
2023-01-06T21:37:13.247Z,98554.56
2023-01-06T21:40:16.536Z,98557.78
2023-01-06T21:43:19.543Z,98550.78
2023-01-06T21:46:22.249Z,98553.88
2023-01-06T21:49:25.280Z,98551.81
2023-01-06T21:52:28.075Z,98553.69
2023-01-06T21:55:30.907Z,98554.09
2023-01-06T21:58:34.000Z,98552.75
2023-01-06T22:01:36.887Z,98559.09
2023-01-06T22:04:39.833Z,98560.78
2023-01-06T22:07:45.977Z,98557.97
2023-01-06T22:10:49.034Z,98568.38
2023-01-06T22:13:52.690Z,98567.66
2023-01-06T22:17:00.669Z,98564.72
2023-01-06T22:20:05.211Z,98558.69
2023-01-06T22:23:11.115Z,98572.44
2023-01-06T22:26:14.151Z,98571.09
2023-01-06T22:29:16.759Z,98572.88
2023-01-06T22:32:19.672Z,98574.53
2023-01-06T22:35:23.109Z,98582.69
2023-01-06T22:38:25.737Z,98572.31
2023-01-06T22:41:28.394Z,98567.44
2023-01-06T22:44:31.758Z,98568.19
2023-01-06T22:47:34.587Z,98570.53
2023-01-06T22:50:38.680Z,98571.50
2023-01-06T22:53:41.343Z,98566.50
2023-01-06T22:56:43.976Z,98568.88
2023-01-06T22:59:46.613Z,98576.53
2023-01-06T23:02:49.528Z,98574.44
2023-01-06T23:05:55.285Z,98569.22
2023-01-06T23:09:00.486Z,98575.66
2023-01-06T23:12:03.733Z,98569.72
2023-01-06T23:15:07.455Z,98576.84
2023-01-06T23:18:10.231Z,98572.03
2023-01-06T23:21:19.936Z,98573.69
2023-01-06T23:24:24.112Z,98577.88
2023-01-06T23:27:26.609Z,98571.63
2023-01-06T23:30:29.870Z,98575.66
2023-01-06T23:33:33.514Z,98565.25
2023-01-06T23:36:37.303Z,98562.63
2023-01-06T23:39:39.835Z,98558.97
2023-01-06T23:42:48.504Z,98558.25
2023-01-06T23:45:51.464Z,98561.19
2023-01-06T23:48:54.838Z,98563.34
2023-01-06T23:51:57.432Z,98565.25
2023-01-06T23:55:00.102Z,98565.84
2023-01-06T23:58:02.671Z,98564.28
